CheckWX is a tool to help pilots better visualize weather data.  It is not intended as a substitute for an official pre-flight weather briefing.

08:11:12 UTC

FLHN METAR
Livingstone Nkum
Livingstone Nkum, Zambia
Current

11 mins ago

FLHN 230800Z 07009KT CAVOK 24/14 Q1020
Observed
Apr-23 @ 08:00 UTC
Wind
  • 070° at 9 KTS
Visibility
10,000+ meters
Flight Rules
VFR
Cloud Levels
  • Clear skies
Temperature
24°C / 75°F
Dewpoint
14°C / 57°F
Humidity
54%
Altimeter
30.12" Hg
Pressure
1019.92 hPa
Previous

1 hour ago

FLHN 230700Z 13006KT CAVOK 23/15 Q1020
Observed
Apr-23 @ 07:00 UTC
Wind
  • 130° at 6 KTS
Visibility
10,000+ meters
Flight Rules
VFR
Cloud Levels
  • Clear skies
Temperature
23°C / 73°F
Dewpoint
15°C / 59°F
Humidity
61%
Altimeter
30.12" Hg
Pressure
1019.92 hPa
Previous

3 hours ago

FLHN 230500Z 10006KT CAVOK 19/14 Q1019
Observed
Apr-23 @ 05:00 UTC
Wind
  • 100° at 6 KTS
Visibility
10,000+ meters
Flight Rules
VFR
Cloud Levels
  • Clear skies
Temperature
19°C / 66°F
Dewpoint
14°C / 57°F
Humidity
73%
Altimeter
30.09" Hg
Pressure
1018.92 hPa